Aérodrome :
LOGIN :

S'inscrire | Disclaimer

   EN    FR    IT 

 










Légende :    VFR   VFR Marginal   IFR   IFR Intensif   IFR Très Intensif
Visi : 
Plafond : 
>= 8 km
>= 3000ft
5 à 8 km
1000 à 3000 ft
1500m à 5 km
500 à 1000 ft
800 à 1500m
200 à 500 ft
< 800m
< 200 ft
Symboles :   Orages  Brouillard  Fortes neiges  Fortes précipitations  Vent > 20 kt
SIGMETs :   Divers  Orages  Givrage  Turbulence  Onde Orograph.  Cendres Volcan.






- Altitude de l'aérodrome : 39 ft
- Code IATA : TRS


LIPQ - Friuli Venezia Giulia Apt. Trieste

DERNIER METAR :
  • 230720Z VRB01KT CAVOK 14/14 Q1020

METARs EXPIRÉS :
  • 230650Z VRB02KT CAVOK 13/13 Q1020
  • 230620Z 35003KT CAVOK 11/11 Q1020
  • 230550Z 35004KT CAVOK 10/10 Q1020
  • 230520Z 35002KT 9999 R09/1300D MIFG NSC 10/10 Q1019
  • 230450Z 32001KT 9999 R09/0800VP1500D MIFG NSC 10/10 Q1020

TAF TAF LIPQ
Valide du 23 à 06h jusqu'au 24 à 06h UTC


230500Z 2306/2406 VRB05KT 3000 BR NSC
TEMPO 2306/2308 0400 FG BKN003
BECMG 2308/2310 6000
BECMG 2318/2320 4000 BR



MET'MAP, la Météo Aéronautique d'un coup d'oeil ! - Copyright ORBIFLY Décembre 2007 - Disclaimer

ORBIFLY MET'MAP TEAM :

Programmation & Développement : Alexandra Zaïnal
Conception & Développement : Baudouin d'Aumeries
Co-Programmation & Développement : Marc-Olivier Méhu
Soutien technique & logistique : Manuel Goepfert

Contact : metmap@orbifly.com




SOURCES & CREDITS :

   NOAA